Terminal Aerodrome Forecast
Issued by NWS Billings, MT

Home | Current Version | Previous Version | Text Only | Print | Product List | Glossary Off
Versions: 1 2 3 4 5 6 7 8 9 10 11 12 13 14 15 16 17 18 19 20 21 22 23 24 25 26 27 28 29 30 31 32 33 34 35 36 37 38

000
FTUS45 KBYZ 130529
TAFMLS
TAF
KMLS 130529Z 1306/1406 13012KT P6SM OVC060
     FM131400 15010KT P6SM -SHRA SCT025 BKN060
     FM131900 30020G30KT P6SM VCSH OVC050
     FM140100 28020KT P6SM SCT020 BKN040=

USA.gov is the U.S. government's official web portal to all federal, state and local government web resources and services.